Time;durP1;ratioP1;P1;durP2;ratioP2;P2;SDS_P1;SDS_P2;PMS_P1;PMS_P2;Temp;Humidity;BMP_temperature;BMP_pressure;BME280_temperature;BME280_humidity;BME280_pressure;Samples;Min_cycle;Max_cycle;Signal;HPM_P1;HPM_P2
2023/01/29 00:00:09;;;;;;;20.15;10.57;;;;;;;0.27;96.56;102140.97;4929584;29;20154;-77
2023/01/29 00:02:36;;;;;;;16.42;9.23;;;;;;;0.29;96.54;102141.97;4942503;28;20113;-79
2023/01/29 00:05:05;;;;;;;17.83;10.68;;;;;;;0.29;96.01;102134.25;4945021;28;20131;-78
2023/01/29 00:07:32;;;;;;;18.48;10.30;;;;;;;0.30;96.35;102136.03;4942958;28;20047;-78
2023/01/29 00:09:58;;;;;;;11.15;9.10;;;;;;;0.32;96.33;102139.56;4941375;28;20054;-76
2023/01/29 00:12:25;;;;;;;17.13;9.95;;;;;;;0.32;96.41;102136.97;4935040;28;20046;-75
2023/01/29 00:14:51;;;;;;;18.38;10.02;;;;;;;0.29;96.34;102136.81;4939733;29;20052;-78
2023/01/29 00:17:18;;;;;;;15.65;10.35;;;;;;;0.26;96.51;102136.66;4939871;28;20047;-76
2023/01/29 00:19:44;;;;;;;18.80;10.65;;;;;;;0.22;96.61;102133.78;4930157;29;20047;-79
2023/01/29 00:22:11;;;;;;;14.82;9.20;;;;;;;0.19;96.44;102131.06;4942811;28;20058;-76
2023/01/29 00:24:37;;;;;;;15.70;10.10;;;;;;;0.16;96.61;102129.19;4944440;28;20054;-76
2023/01/29 00:27:05;;;;;;;14.13;9.25;;;;;;;0.14;96.61;102126.53;4941910;28;20059;-82
2023/01/29 00:29:31;;;;;;;15.95;9.55;;;;;;;0.12;96.55;102122.97;4941683;28;20044;-76
2023/01/29 00:31:57;;;;;;;14.40;9.32;;;;;;;0.13;96.62;102121.28;4941970;28;20040;-75
2023/01/29 00:34:24;;;;;;;17.52;9.93;;;;;;;0.10;96.60;102118.53;4938251;29;20040;-79
2023/01/29 00:36:50;;;;;;;14.52;9.02;;;;;;;0.10;97.18;102110.81;4938601;28;20067;-80
2023/01/29 00:39:23;;;;;;;15.23;10.00;;;;;;;0.11;96.70;102120.31;4940321;28;20044;-76
2023/01/29 00:47:33;;;;;;;;;;;;;;;0.01;97.64;102116.31;4944233;28;20514;-79
2023/01/29 00:50:01;;;;;;;15.13;9.30;;;;;;;0.06;97.09;102121.75;4948170;28;20440;-78
2023/01/29 00:52:28;;;;;;;21.23;10.73;;;;;;;0.06;96.82;102122.63;4938071;29;20047;-76
2023/01/29 00:54:58;;;;;;;16.75;10.07;;;;;;;0.09;97.06;102124.47;4933664;29;20410;-75
2023/01/29 00:57:31;;;;;;;14.35;9.15;;;;;;;0.12;97.24;102120.41;4930852;28;20047;-76
2023/01/29 00:59:58;;;;;;;17.42;10.35;;;;;;;0.16;96.80;102118.91;4929629;29;20043;-77
2023/01/29 01:05:16;;;;;;;20.73;9.93;;;;;;;0.21;96.95;102122.63;4932659;29;20054;-76
2023/01/29 01:07:48;;;;;;;16.60;9.00;;;;;;;0.20;96.72;102125.13;4932272;29;20066;-75
2023/01/29 01:10:21;;;;;;;16.00;9.15;;;;;;;0.18;96.98;102125.00;4940819;28;20425;-78
2023/01/29 01:13:02;;;;;;;11.93;7.57;;;;;;;0.13;96.88;102106.72;4928013;29;20040;-76
2023/01/29 01:15:34;;;;;;;14.52;8.02;;;;;;;0.08;96.85;102103.00;4928046;28;20190;-76
2023/01/29 01:18:01;;;;;;;17.50;9.63;;;;;;;0.09;97.44;102102.22;4927942;29;20051;-79
2023/01/29 01:20:33;;;;;;;18.38;10.52;;;;;;;0.16;97.30;102098.28;4942720;28;20052;-76
2023/01/29 01:22:59;;;;;;;17.30;9.48;;;;;;;0.23;96.67;102100.41;4928007;29;20047;-76
2023/01/29 01:25:27;;;;;;;14.40;9.13;;;;;;;0.29;96.31;102089.56;4946228;28;20062;-81
2023/01/29 01:27:58;;;;;;;17.23;9.65;;;;;;;0.36;96.57;102088.22;4942827;28;20077;-80
2023/01/29 01:30:25;;;;;;;15.65;10.60;;;;;;;0.36;96.10;102091.69;4920996;28;20046;-77
2023/01/29 01:32:53;;;;;;;11.38;8.85;;;;;;;0.37;95.94;102082.28;4917103;29;20074;-77
2023/01/29 01:35:19;;;;;;;15.35;9.77;;;;;;;0.33;96.19;102079.50;4929434;29;20039;-79
2023/01/29 01:37:46;;;;;;;15.70;9.45;;;;;;;0.31;96.23;102078.56;4951911;28;20043;-77
2023/01/29 01:40:20;;;;;;;18.58;10.05;;;;;;;0.29;96.39;102067.28;4939394;29;20483;-79
2023/01/29 01:42:52;;;;;;;16.50;10.05;;;;;;;0.25;96.50;102062.75;4934556;29;20039;-77
2023/01/29 01:45:24;;;;;;;15.02;9.40;;;;;;;0.22;96.74;102077.13;4944395;28;20490;-75
2023/01/29 01:47:59;;;;;;;16.63;10.48;;;;;;;0.21;96.79;102067.63;4950031;28;20055;-76
2023/01/29 01:50:43;;;;;;;14.27;9.52;;;;;;;0.21;96.93;102062.47;4951077;28;20066;-75
2023/01/29 01:53:13;;;;;;;18.38;9.77;;;;;;;0.21;96.46;102065.06;4945053;28;20507;-75
2023/01/29 01:55:49;;;;;;;16.50;9.90;;;;;;;0.19;97.21;102064.97;4947312;28;20102;-75
2023/01/29 01:58:34;;;;;;;15.45;9.30;;;;;;;0.16;97.64;102059.66;4945321;29;20486;-78
2023/01/29 02:01:01;;;;;;;15.38;9.93;;;;;;;0.13;97.04;102059.47;4935419;29;20482;-75
2023/01/29 02:11:51;;;;;;;14.68;8.98;;;;;;;-0.20;98.87;102072.19;4946937;29;20502;-76
2023/01/29 02:14:17;;;;;;;15.38;10.43;;;;;;;-0.29;99.25;102071.66;4949879;28;20134;-77
2023/01/29 02:16:44;;;;;;;19.33;9.80;;;;;;;-0.39;99.72;102068.56;4932320;29;20047;-79
2023/01/29 02:19:24;;;;;;;17.45;10.38;;;;;;;-0.43;100.00;102068.28;4947215;28;20062;-75
2023/01/29 02:22:11;;;;;;;20.65;11.55;;;;;;;-0.48;100.00;102077.41;4935279;29;20066;-76
2023/01/29 02:25:08;;;;;;;13.77;9.18;;;;;;;-0.47;100.00;102085.25;4952452;28;20687;-76
2023/01/29 02:28:20;;;;;;;17.10;10.63;;;;;;;-0.38;100.00;102084.88;4956130;28;20055;-79
2023/01/29 02:31:03;;;;;;;16.35;9.35;;;;;;;-0.31;100.00;102092.19;4949013;29;20119;-78
2023/01/29 02:33:56;;;;;;;15.15;8.52;;;;;;;-0.21;100.00;102096.16;4931080;29;20074;-76
2023/01/29 02:36:37;;;;;;;18.50;9.68;;;;;;;-0.15;100.00;102104.25;4941712;29;20042;-77
2023/01/29 02:39:18;;;;;;;16.58;9.57;;;;;;;-0.06;100.00;102109.03;4945729;28;20043;-79
2023/01/29 02:42:14;;;;;;;18.20;10.05;;;;;;;-0.03;99.58;102106.63;4944864;29;20059;-76
2023/01/29 02:44:49;;;;;;;15.35;10.18;;;;;;;0.03;99.63;102109.56;4947834;28;20039;-77
2023/01/29 02:47:22;;;;;;;12.20;7.95;;;;;;;0.06;98.96;102107.16;4916354;28;20047;-76
2023/01/29 02:50:15;;;;;;;16.48;9.77;;;;;;;0.08;98.44;102104.66;4947726;29;20039;-76
2023/01/29 02:53:02;;;;;;;13.20;9.07;;;;;;;0.06;98.51;102108.88;4945053;29;20431;-76
2023/01/29 02:55:58;;;;;;;15.65;9.05;;;;;;;0.07;98.51;102106.38;4936900;28;20059;-78
2023/01/29 02:58:43;;;;;;;18.45;10.55;;;;;;;0.08;97.44;102108.16;4931076;29;20055;-82
2023/01/29 03:01:18;;;;;;;19.80;11.88;;;;;;;0.11;97.06;102108.31;4944581;28;20046;-76
2023/01/29 03:03:52;;;;;;;15.43;10.18;;;;;;;0.12;96.25;102101.50;4932130;29;20039;-75
2023/01/29 03:06:29;;;;;;;18.02;11.45;;;;;;;0.08;96.26;102100.44;4945719;29;20040;-76
2023/01/29 03:09:03;;;;;;;17.73;10.73;;;;;;;0.08;94.89;102091.78;4931029;28;20058;-75
2023/01/29 03:11:38;;;;;;;19.38;11.50;;;;;;;0.11;94.56;102085.13;4930286;29;20490;-76
2023/01/29 03:14:18;;;;;;;17.67;9.88;;;;;;;0.10;93.20;102080.78;4931519;29;20064;-77
2023/01/29 03:16:52;;;;;;;19.35;11.40;;;;;;;0.09;92.97;102072.97;4930591;28;20440;-78
2023/01/29 03:19:26;;;;;;;18.02;10.60;;;;;;;0.04;93.38;102077.88;4944366;29;20054;-77
2023/01/29 03:21:58;;;;;;;20.98;11.13;;;;;;;0.01;93.28;102069.09;4938153;28;20051;-77
2023/01/29 03:33:08;;;;;;;13.95;9.57;;;;;;;0.11;91.78;102066.25;4929012;29;20609;-76
2023/01/29 03:35:42;;;;;;;22.00;11.70;;;;;;;0.08;91.67;102059.22;4926822;29;20039;-77
2023/01/29 03:38:11;;;;;;;17.77;10.52;;;;;;;0.04;91.54;102064.09;4924181;29;20043;-75
2023/01/29 03:41:10;;;;;;;17.08;10.70;;;;;;;0.00;92.43;102068.22;4905961;29;20104;-75
2023/01/29 03:44:14;;;;;;;20.83;12.70;;;;;;;0.01;91.82;102067.38;4923187;29;20076;-75
2023/01/29 03:46:50;;;;;;;19.20;11.73;;;;;;;-0.02;91.51;102055.22;4928010;29;20087;-81
2023/01/29 03:49:43;;;;;;;17.60;10.43;;;;;;;-0.02;91.69;102046.63;4930691;29;20463;-75
2023/01/29 03:52:20;;;;;;;20.45;11.48;;;;;;;-0.01;91.65;102051.00;4929629;29;20040;-77
2023/01/29 03:55:09;;;;;;;22.73;11.85;;;;;;;0.00;91.59;102052.78;4915725;29;20058;-76
2023/01/29 03:58:00;;;;;;;19.67;11.25;;;;;;;-0.02;91.69;102044.94;4913966;29;20127;-76
2023/01/29 04:00:42;;;;;;;24.17;12.63;;;;;;;0.02;91.54;102039.97;4911817;29;20111;-76
2023/01/29 04:03:20;;;;;;;24.33;11.90;;;;;;;-0.01;91.64;102036.41;4903494;29;20051;-76
2023/01/29 04:06:25;;;;;;;23.23;12.10;;;;;;;-0.02;91.64;102034.63;4933132;29;20048;-77
2023/01/29 04:08:59;;;;;;;21.30;12.45;;;;;;;0.01;91.68;102033.06;4911944;29;20043;-76
2023/01/29 04:11:28;;;;;;;20.48;11.65;;;;;;;0.01;91.43;102027.91;4923711;29;20059;-81
2023/01/29 04:13:57;;;;;;;21.83;11.77;;;;;;;0.02;91.32;102022.84;4922404;29;20051;-76
2023/01/29 04:16:39;;;;;;;18.13;11.23;;;;;;;0.10;91.02;102020.69;4912320;29;20108;-75
2023/01/29 04:19:07;;;;;;;20.40;10.80;;;;;;;0.08;91.28;102012.88;4915215;29;20236;-81
2023/01/29 04:21:36;;;;;;;17.98;11.13;;;;;;;0.12;91.09;102009.66;4925005;29;20043;-74
2023/01/29 04:24:03;;;;;;;21.52;10.50;;;;;;;0.11;91.07;102001.88;4948032;29;20043;-82
2023/01/29 04:26:46;;;;;;;21.27;10.60;;;;;;;0.11;90.80;102000.16;4949509;29;20039;-73
2023/01/29 04:29:40;;;;;;;17.90;10.43;;;;;;;0.15;90.66;101986.66;4933641;29;20051;-75
2023/01/29 04:32:37;;;;;;;23.65;11.35;;;;;;;0.21;90.34;101977.50;4934889;28;20052;-76
2023/01/29 04:35:58;;;;;;;18.33;10.98;;;;;;;0.23;89.93;101975.91;4930005;29;20987;-74
2023/01/29 04:39:00;;;;;;;15.95;9.55;;;;;;;0.23;89.43;101979.34;4878848;29;20059;-75
2023/01/29 04:41:43;;;;;;;16.52;10.05;;;;;;;0.26;89.48;101958.94;4881989;29;20104;-77
2023/01/29 04:44:20;;;;;;;15.10;9.43;;;;;;;0.27;89.63;101957.22;4906047;29;20070;-79
2023/01/29 04:47:28;;;;;;;18.42;9.68;;;;;;;0.30;88.89;101966.03;4931429;29;20057;-76
2023/01/29 04:50:15;;;;;;;17.40;9.82;;;;;;;0.32;89.29;101956.66;4929817;28;20043;-81
2023/01/29 04:52:58;;;;;;;16.95;9.45;;;;;;;0.32;89.25;101956.66;4930945;29;20051;-76
2023/01/29 04:55:47;;;;;;;15.75;8.90;;;;;;;0.35;89.30;101975.69;4933019;29;20051;-76
2023/01/29 04:58:35;;;;;;;18.10;10.95;;;;;;;0.35;89.16;101963.66;4926880;29;20069;-75
2023/01/29 05:01:07;;;;;;;19.95;10.52;;;;;;;0.37;89.33;101958.63;4928620;29;20050;-79
2023/01/29 05:03:36;;;;;;;19.02;10.02;;;;;;;0.40;89.36;101958.78;4943109;28;20126;-76
2023/01/29 05:06:08;;;;;;;17.90;10.23;;;;;;;0.41;88.99;101960.56;4923081;29;20039;-81
2023/01/29 05:08:46;;;;;;;16.73;9.60;;;;;;;0.42;88.70;101952.91;4931073;29;20066;-74
2023/01/29 05:11:14;;;;;;;15.70;10.23;;;;;;;0.43;88.70;101954.69;4945440;28;20054;-77
2023/01/29 05:13:42;;;;;;;22.00;11.20;;;;;;;0.42;88.94;101967.50;4931913;29;20691;-77
2023/01/29 05:16:40;;;;;;;16.05;8.77;;;;;;;0.36;88.91;101960.31;4946036;28;20110;-75
2023/01/29 05:19:25;;;;;;;17.50;8.73;;;;;;;0.34;89.44;101956.78;4930580;29;20071;-76
2023/01/29 05:22:07;;;;;;;;;;;;;;;0.35;89.10;101957.66;4915752;29;20059;-75
2023/01/29 05:24:41;;;;;;;14.57;10.13;;;;;;;0.35;89.33;101950.78;4912100;29;19982;-76
2023/01/29 05:30:03;;;;;;;18.10;9.07;;;;;;;0.31;89.61;101957.50;4921439;29;20059;-75
2023/01/29 05:32:30;;;;;;;15.32;8.88;;;;;;;0.32;89.15;101955.78;4909920;29;20055;-76
2023/01/29 05:35:00;;;;;;;17.50;10.20;;;;;;;0.35;88.93;101961.09;4929959;29;20436;-75
2023/01/29 05:37:35;;;;;;;19.33;10.43;;;;;;;0.35;89.11;101971.41;4913080;29;20067;-76
2023/01/29 05:40:02;;;;;;;15.85;10.13;;;;;;;0.37;88.94;101971.50;4928329;29;20470;-75
2023/01/29 05:42:35;;;;;;;16.27;10.00;;;;;;;0.41;88.26;101969.16;4913917;29;20040;-81
2023/01/29 05:45:01;;;;;;;18.40;9.98;;;;;;;0.43;87.57;101971.81;4915613;29;20043;-79
2023/01/29 05:47:27;;;;;;;17.77;10.10;;;;;;;0.38;87.78;101976.75;4925741;29;20487;-76
2023/01/29 05:49:54;;;;;;;18.02;10.35;;;;;;;0.39;87.59;101969.88;4926416;29;20122;-77
2023/01/29 05:52:20;;;;;;;17.17;10.45;;;;;;;0.40;87.41;101969.09;4923821;29;20108;-83
2023/01/29 05:54:47;;;;;;;17.73;10.73;;;;;;;0.37;87.45;101972.38;4939046;29;20050;-75
2023/01/29 05:57:14;;;;;;;21.15;10.60;;;;;;;0.35;87.91;101975.69;4933951;29;20075;-76
2023/01/29 05:59:41;;;;;;;17.80;10.82;;;;;;;0.32;88.11;101985.00;4915011;29;20058;-75
2023/01/29 06:02:14;;;;;;;21.13;11.20;;;;;;;0.37;87.61;101986.97;4916025;29;20057;-76
2023/01/29 06:04:46;;;;;;;23.23;10.57;;;;;;;0.35;87.78;101986.84;4926801;29;20036;-77
2023/01/29 06:07:20;;;;;;;16.88;9.55;;;;;;;0.40;88.01;101993.16;4906570;29;20052;-76
2023/01/29 06:09:47;;;;;;;22.48;12.52;;;;;;;0.38;87.58;101984.47;4925638;29;20047;-75
2023/01/29 06:12:16;;;;;;;20.65;10.65;;;;;;;0.39;87.64;101981.09;4908857;29;20047;-75
2023/01/29 06:14:54;;;;;;;17.70;9.48;;;;;;;0.39;88.29;101987.91;4924454;29;20046;-75
2023/01/29 06:17:21;;;;;;;18.70;10.50;;;;;;;0.38;88.82;101992.19;4908617;29;20349;-78
2023/01/29 06:19:51;;;;;;;22.35;11.60;;;;;;;0.41;88.34;101987.19;4922294;29;20032;-78
2023/01/29 06:22:22;;;;;;;20.50;10.45;;;;;;;0.42;88.57;101970.06;4912427;29;20047;-75
2023/01/29 06:24:48;;;;;;;18.52;10.00;;;;;;;0.41;89.03;101964.00;4927467;29;20372;-76
2023/01/29 06:27:15;;;;;;;21.85;12.35;;;;;;;0.43;89.14;101979.53;4916058;29;20054;-78
2023/01/29 06:29:41;;;;;;;17.95;10.82;;;;;;;0.43;88.93;101988.19;4913244;29;20055;-82
2023/01/29 06:32:08;;;;;;;21.92;11.93;;;;;;;0.46;88.93;101982.31;4894183;29;20048;-75
2023/01/29 06:34:34;;;;;;;21.88;9.82;;;;;;;0.48;88.96;101988.41;4913879;29;20059;-75
2023/01/29 06:37:01;;;;;;;22.15;11.75;;;;;;;0.52;89.30;101982.63;4913781;29;20032;-82
2023/01/29 06:39:28;;;;;;;19.17;10.45;;;;;;;0.49;89.53;101982.47;4909205;29;20047;-81
2023/01/29 06:41:54;;;;;;;21.45;11.55;;;;;;;0.51;90.02;101986.03;4918054;29;20048;-75
2023/01/29 06:44:21;;;;;;;21.50;11.85;;;;;;;0.55;89.76;101987.03;4916010;29;20044;-77
2023/01/29 06:46:47;;;;;;;22.42;12.77;;;;;;;0.51;89.50;101979.97;4925037;29;20054;-76
2023/01/29 06:49:14;;;;;;;24.98;13.02;;;;;;;0.46;89.67;101984.88;4909166;29;20048;-76
2023/01/29 06:51:40;;;;;;;26.52;13.68;;;;;;;0.44;89.56;101984.81;4910561;29;20814;-76
2023/01/29 06:54:07;;;;;;;28.90;14.50;;;;;;;0.42;89.48;101977.81;4924184;29;20111;-74
2023/01/29 06:56:34;;;;;;;26.23;13.65;;;;;;;0.37;89.24;101981.81;4913025;29;20078;-74
2023/01/29 06:59:00;;;;;;;31.35;14.88;;;;;;;0.37;88.86;101989.53;4910421;29;20055;-82
2023/01/29 07:01:27;;;;;;;26.40;14.93;;;;;;;0.35;88.95;102002.31;4921259;29;20091;-78
2023/01/29 07:03:53;;;;;;;25.80;14.60;;;;;;;0.31;89.60;102020.97;4922486;29;20396;-76
2023/01/29 07:06:21;;;;;;;26.88;14.82;;;;;;;0.28;89.85;102019.13;4905988;29;20092;-77
2023/01/29 07:08:47;;;;;;;29.25;14.13;;;;;;;0.26;90.25;102013.03;4925680;29;21064;-76
2023/01/29 07:11:14;;;;;;;31.65;14.98;;;;;;;0.26;90.64;102023.31;4921832;29;20051;-76
2023/01/29 07:13:40;;;;;;;28.90;14.38;;;;;;;0.26;90.38;102017.28;4925646;29;20553;-78
2023/01/29 07:16:07;;;;;;;31.63;15.32;;;;;;;0.28;90.67;102026.84;4925628;29;20123;-78
2023/01/29 07:18:33;;;;;;;31.45;16.00;;;;;;;0.29;91.05;102017.47;4924291;29;20040;-78
2023/01/29 07:21:06;;;;;;;31.45;15.30;;;;;;;0.30;90.93;102007.22;4925649;29;20879;-75
2023/01/29 07:23:33;;;;;;;28.42;14.38;;;;;;;0.33;91.65;102004.81;4918863;29;20044;-79
2023/01/29 07:26:05;;;;;;;28.52;16.42;;;;;;;0.33;91.71;102007.38;4920466;29;20043;-80
2023/01/29 07:28:32;;;;;;;26.75;14.68;;;;;;;0.31;92.56;101997.81;4908135;29;20411;-75
2023/01/29 07:30:59;;;;;;;29.60;15.98;;;;;;;0.29;93.61;101999.44;4909165;29;20048;-75
2023/01/29 07:33:26;;;;;;;32.03;17.13;;;;;;;0.30;94.28;101973.75;4905204;29;20126;-76
2023/01/29 07:35:53;;;;;;;32.25;16.88;;;;;;;0.27;94.89;101975.25;4927880;29;20058;-82
2023/01/29 07:38:20;;;;;;;30.50;15.90;;;;;;;0.27;95.61;101975.25;4910668;29;20043;-78
2023/01/29 07:40:46;;;;;;;32.97;16.05;;;;;;;0.25;95.80;101977.75;4921579;29;20096;-79
2023/01/29 07:43:13;;;;;;;34.45;16.10;;;;;;;0.23;96.11;101984.50;4908598;29;20543;-80
2023/01/29 07:45:40;;;;;;;33.80;17.27;;;;;;;0.23;96.58;101979.34;4922453;29;20043;-75
2023/01/29 07:48:10;;;;;;;38.92;16.85;;;;;;;0.25;97.25;101975.19;4923336;29;20052;-76
2023/01/29 07:50:36;;;;;;;37.45;18.67;;;;;;;0.26;97.76;101974.38;4920803;29;20661;-75
2023/01/29 07:53:03;;;;;;;40.83;18.65;;;;;;;0.27;99.21;101976.13;4923930;29;20040;-75
2023/01/29 07:55:30;;;;;;;33.10;16.73;;;;;;;0.23;99.43;101957.88;4925342;29;20040;-76
2023/01/29 07:58:03;;;;;;;31.17;15.73;;;;;;;0.18;100.00;101933.56;4913411;29;20654;-77
2023/01/29 08:00:31;;;;;;;34.80;17.30;;;;;;;0.18;100.00;101925.84;4915526;29;20092;-81
2023/01/29 08:03:06;;;;;;;34.13;16.83;;;;;;;0.15;100.00;101926.56;4919970;29;20048;-76
2023/01/29 08:05:33;;;;;;;34.75;18.02;;;;;;;0.13;100.00;101934.19;4924641;29;20131;-78
2023/01/29 08:08:00;;;;;;;40.40;18.65;;;;;;;0.13;100.00;101944.50;4896956;29;20040;-81
2023/01/29 08:10:27;;;;;;;39.42;18.73;;;;;;;0.13;100.00;101951.31;4894909;29;20048;-78
2023/01/29 08:12:59;;;;;;;30.38;16.15;;;;;;;0.13;100.00;101947.06;4894954;29;20039;-79
2023/01/29 08:15:27;;;;;;;36.08;18.55;;;;;;;0.17;100.00;101950.72;4923361;29;20108;-76
2023/01/29 08:17:54;;;;;;;31.30;16.45;;;;;;;0.20;100.00;101942.28;4916655;29;20044;-76
2023/01/29 08:20:22;;;;;;;34.90;18.95;;;;;;;0.13;100.00;101944.50;4916647;29;20051;-75
2023/01/29 08:22:48;;;;;;;35.08;17.30;;;;;;;0.12;100.00;101947.88;4931588;29;20129;-76
2023/01/29 08:25:15;;;;;;;37.95;18.13;;;;;;;0.18;100.00;101941.28;4935225;29;20496;-75
2023/01/29 08:27:42;;;;;;;34.10;17.67;;;;;;;0.21;100.00;101949.16;4930350;29;20050;-75
2023/01/29 08:30:10;;;;;;;33.17;18.15;;;;;;;0.20;100.00;101945.72;4950662;29;20524;-76
2023/01/29 08:32:36;;;;;;;32.10;17.02;;;;;;;0.20;100.00;101950.88;4945962;29;20044;-76
2023/01/29 08:35:03;;;;;;;31.83;17.65;;;;;;;0.18;100.00;101949.00;4932601;29;20424;-76
2023/01/29 08:37:29;;;;;;;34.70;18.45;;;;;;;0.21;100.00;101947.50;4944397;29;20046;-76
2023/01/29 08:39:56;;;;;;;30.27;17.27;;;;;;;0.26;100.00;101942.56;4936676;29;20398;-75
2023/01/29 08:42:22;;;;;;;33.40;17.02;;;;;;;0.30;100.00;101953.16;4943788;28;20043;-76
2023/01/29 08:44:49;;;;;;;34.80;17.20;;;;;;;0.33;100.00;101937.84;4940313;29;20051;-76
2023/01/29 08:47:15;;;;;;;33.88;17.35;;;;;;;0.34;100.00;101943.91;4952127;29;20040;-75
2023/01/29 08:49:42;;;;;;;33.72;17.52;;;;;;;0.29;100.00;101930.75;4931821;29;20031;-75
2023/01/29 08:52:08;;;;;;;38.60;19.42;;;;;;;0.35;100.00;101937.91;4951032;28;20060;-74
2023/01/29 08:54:34;;;;;;;35.03;17.20;;;;;;;0.40;100.00;101933.03;4931245;29;20039;-75
2023/01/29 08:57:01;;;;;;;40.20;19.73;;;;;;;0.40;100.00;101925.28;4949471;28;20062;-78
2023/01/29 08:59:27;;;;;;;31.58;17.67;;;;;;;0.43;100.00;101931.50;4927116;29;20051;-74
2023/01/29 09:01:54;;;;;;;39.35;19.65;;;;;;;0.48;100.00;101929.16;4950869;29;20043;-75
2023/01/29 09:04:20;;;;;;;34.25;17.00;;;;;;;0.53;100.00;101931.97;4934261;29;20039;-75
2023/01/29 09:06:47;;;;;;;42.90;20.30;;;;;;;0.60;99.67;101923.75;4936965;29;20043;-76
2023/01/29 09:09:14;;;;;;;35.30;17.98;;;;;;;0.65;99.92;101930.94;4923112;29;20047;-77
2023/01/29 09:11:40;;;;;;;36.83;17.63;;;;;;;0.72;98.75;101937.28;4951414;29;20104;-74
2023/01/29 09:14:07;;;;;;;34.58;17.85;;;;;;;0.73;98.65;101928.75;4954915;29;20094;-76
2023/01/29 09:16:33;;;;;;;31.48;17.00;;;;;;;0.71;98.69;101912.31;4946856;29;20046;-77
2023/01/29 09:19:00;;;;;;;33.90;17.27;;;;;;;0.78;98.17;101918.66;4948530;29;20731;-82
2023/01/29 09:21:26;;;;;;;35.15;17.20;;;;;;;0.74;98.33;101902.16;4923040;29;20059;-78
2023/01/29 09:23:52;;;;;;;35.75;16.38;;;;;;;0.79;97.96;101904.97;4944364;29;20110;-75
2023/01/29 09:26:19;;;;;;;29.33;15.75;;;;;;;0.77;98.29;101892.03;4958026;29;20063;-77
2023/01/29 09:28:45;;;;;;;29.55;15.32;;;;;;;0.84;97.56;101885.47;4952752;28;20067;-77
2023/01/29 09:31:12;;;;;;;29.73;16.40;;;;;;;0.84;97.48;101888.06;4940069;29;20055;-75
2023/01/29 09:33:38;;;;;;;35.22;16.98;;;;;;;0.87;97.71;101888.19;4949999;29;20111;-76
2023/01/29 09:36:06;;;;;;;28.02;15.77;;;;;;;1.00;96.72;101887.13;4949569;29;20067;-76
2023/01/29 09:38:32;;;;;;;28.63;14.73;;;;;;;0.98;96.55;101899.94;4934575;29;20040;-77
2023/01/29 09:41:06;;;;;;;29.92;14.77;;;;;;;1.00;96.84;101892.28;4937455;29;20043;-75
2023/01/29 09:43:43;;;;;;;;;;;;;;;1.01;96.53;101880.31;4956361;28;20040;-75
2023/01/29 09:46:24;;;;;;;28.05;14.77;;;;;;;1.03;96.34;101884.72;4937764;29;20018;-75
2023/01/29 09:49:07;;;;;;;32.88;14.55;;;;;;;1.13;95.70;101888.63;4952708;29;20039;-78
2023/01/29 09:51:44;;;;;;;32.17;15.82;;;;;;;1.17;95.05;101877.66;4940155;29;20054;-75
2023/01/29 09:54:29;;;;;;;27.42;15.13;;;;;;;1.17;94.87;101874.19;4944744;29;20427;-75
2023/01/29 09:56:57;;;;;;;29.80;14.55;;;;;;;1.20;95.19;101892.38;4937665;29;20712;-77
2023/01/29 09:59:27;;;;;;;29.88;16.10;;;;;;;1.20;94.25;101877.81;4952599;29;20115;-76
2023/01/29 10:02:17;;;;;;;31.50;17.85;;;;;;;1.24;94.40;101868.50;4950362;29;20061;-75
2023/01/29 10:05:16;;;;;;;34.95;18.55;;;;;;;1.19;94.34;101868.31;4952412;29;20042;-77
2023/01/29 10:08:03;;;;;;;31.70;16.60;;;;;;;1.13;94.38;101853.44;4949866;28;20051;-76
2023/01/29 10:11:08;;;;;;;32.60;16.80;;;;;;;1.14;94.85;101862.91;4951029;29;20099;-75
2023/01/29 10:14:10;;;;;;;33.10;15.90;;;;;;;1.18;94.42;101860.50;4950743;28;20058;-75
2023/01/29 10:17:08;;;;;;;32.05;15.70;;;;;;;1.25;94.51;101858.28;4946302;29;20048;-78
2023/01/29 10:20:21;;;;;;;35.10;18.85;;;;;;;1.31;94.66;101862.84;4935299;29;20061;-81
2023/01/29 10:23:25;;;;;;;28.67;13.38;;;;;;;1.39;94.14;101865.81;4947741;29;20063;-74
2023/01/29 10:25:53;;;;;;;29.00;15.35;;;;;;;1.45;93.61;101866.09;4939402;29;20498;-76
2023/01/29 10:28:30;;;;;;;29.13;15.27;;;;;;;1.40;93.61;101865.88;4936395;29;20486;-75
2023/01/29 10:31:20;;;;;;;32.38;16.52;;;;;;;1.35;94.13;101866.47;4941243;29;20044;-75
2023/01/29 10:34:14;;;;;;;29.02;15.27;;;;;;;1.40;94.24;101868.47;4953412;29;20685;-76
2023/01/29 10:36:48;;;;;;;30.58;16.90;;;;;;;1.48;94.08;101877.44;4935211;29;20047;-80
2023/01/29 10:39:20;;;;;;;28.92;15.93;;;;;;;1.57;93.22;101861.53;4929963;29;20044;-76
2023/01/29 10:42:15;;;;;;;32.08;14.77;;;;;;;1.58;92.60;101865.88;4947766;29;20661;-78
2023/01/29 10:45:10;;;;;;;23.02;12.30;;;;;;;1.56;92.80;101856.28;4946769;29;20062;-76
2023/01/29 10:48:03;;;;;;;24.10;13.25;;;;;;;1.56;93.03;101852.00;4937442;29;20035;-74
2023/01/29 10:50:52;;;;;;;21.83;12.95;;;;;;;1.60;92.04;101847.88;4948868;29;20043;-75
2023/01/29 10:53:43;;;;;;;27.00;13.23;;;;;;;1.57;92.39;101840.00;4929714;29;20040;-74
2023/01/29 10:56:53;;;;;;;24.65;13.23;;;;;;;1.60;91.19;101837.56;4930817;29;20043;-73
2023/01/29 10:59:50;;;;;;;21.92;11.95;;;;;;;1.57;91.77;101832.25;4935103;29;20703;-74
2023/01/29 11:02:20;;;;;;;24.83;11.98;;;;;;;1.61;90.79;101816.97;4950148;29;20047;-75
2023/01/29 11:04:47;;;;;;;28.30;14.00;;;;;;;1.56;90.95;101813.28;4949852;29;20046;-74
2023/01/29 11:07:18;;;;;;;22.20;12.52;;;;;;;1.59;91.28;101817.72;4938125;29;20051;-76
2023/01/29 11:10:02;;;;;;;26.35;13.48;;;;;;;1.64;90.53;101803.31;4951894;29;20035;-76
2023/01/29 11:12:32;;;;;;;24.27;13.68;;;;;;;1.69;90.45;101795.81;4949331;29;20047;-75
2023/01/29 11:15:27;;;;;;;24.40;12.38;;;;;;;1.72;89.97;101799.41;4951298;29;20047;-75
2023/01/29 11:18:05;;;;;;;26.10;13.60;;;;;;;1.74;89.26;101797.78;4966872;28;20047;-75
2023/01/29 11:20:34;;;;;;;22.00;12.38;;;;;;;1.72;89.41;101796.84;4950616;29;20070;-75
2023/01/29 11:23:00;;;;;;;21.85;12.80;;;;;;;1.69;89.50;101791.50;4947780;28;20523;-79
2023/01/29 11:25:28;;;;;;;23.80;13.23;;;;;;;1.68;89.72;101784.56;4934792;29;20375;-74
2023/01/29 11:28:01;;;;;;;22.40;11.93;;;;;;;1.72;89.32;101790.75;4952883;29;20043;-75
2023/01/29 11:30:35;;;;;;;28.83;14.13;;;;;;;1.75;89.12;101772.84;4950839;28;20047;-74
2023/01/29 11:33:20;;;;;;;28.80;15.40;;;;;;;1.76;89.00;101769.44;4947116;28;20062;-75
2023/01/29 11:35:47;;;;;;;24.23;13.93;;;;;;;1.74;88.50;101771.94;4948483;29;20051;-75
2023/01/29 11:38:17;;;;;;;31.35;14.30;;;;;;;1.74;89.23;101768.50;4936923;29;20119;-75
2023/01/29 11:40:44;;;;;;;39.40;16.48;;;;;;;1.78;89.30;101765.25;4952595;29;20043;-73
2023/01/29 11:43:43;;;;;;;26.13;12.98;;;;;;;1.85;88.91;101756.94;4952439;29;20549;-76
2023/01/29 11:46:15;;;;;;;24.15;12.80;;;;;;;1.80;88.48;101758.47;4913860;29;20078;-75
2023/01/29 11:48:44;;;;;;;23.17;11.18;;;;;;;1.83;88.30;101750.84;4937160;29;20035;-73
2023/01/29 11:51:21;;;;;;;21.25;11.55;;;;;;;1.81;88.32;101757.63;4918105;29;20039;-74
2023/01/29 11:54:06;;;;;;;20.00;11.63;;;;;;;1.81;87.49;101750.78;4950539;28;20798;-78
2023/01/29 11:56:40;;;;;;;27.85;13.98;;;;;;;1.83;88.14;101737.94;4950779;28;20156;-79
2023/01/29 11:59:39;;;;;;;25.48;12.63;;;;;;;1.84;87.76;101729.38;4933465;29;20047;-78
2023/01/29 12:02:32;;;;;;;22.02;12.32;;;;;;;1.80;87.95;101719.72;4951910;29;20124;-80
2023/01/29 12:05:07;;;;;;;25.90;13.25;;;;;;;1.79;87.81;101724.00;4939887;28;20043;-73
2023/01/29 12:07:34;;;;;;;28.20;14.82;;;;;;;1.81;87.49;101719.78;4928060;29;20047;-76
2023/01/29 12:10:02;;;;;;;23.60;12.60;;;;;;;1.88;87.36;101718.34;4932097;29;20042;-74
2023/01/29 12:12:42;;;;;;;23.45;13.77;;;;;;;1.90;86.60;101714.13;4944383;29;20044;-73
2023/01/29 12:15:08;;;;;;;28.38;14.23;;;;;;;1.92;86.51;101711.63;4951773;28;20672;-76
2023/01/29 12:17:38;;;;;;;28.85;14.48;;;;;;;1.86;86.53;101716.53;4934232;29;20482;-74
2023/01/29 12:20:23;;;;;;;23.70;14.10;;;;;;;1.84;87.13;101708.72;4922255;28;20054;-75